Time;durP1;ratioP1;P1;durP2;ratioP2;P2;SDS_P1;SDS_P2;PMS_P1;PMS_P2;Temp;Humidity;BMP_temperature;BMP_pressure;BME280_temperature;BME280_humidity;BME280_pressure;Samples;Min_cycle;Max_cycle;Signal;HPM_P1;HPM_P2
2022/04/14 00:01:41;;;;;;;;;;;21.30;45.70;;;;;;5075029;28;19924;-42
2022/04/14 00:04:08;;;;;;;;;;;21.30;45.70;;;;;;5073347;28;19924;-42
2022/04/14 00:06:35;;;;;;;;;;;21.30;45.80;;;;;;5073377;28;19932;-41
2022/04/14 00:09:02;;;;;;;;;;;21.20;45.70;;;;;;5063589;28;20363;-42
2022/04/14 00:11:29;;;;;;;;;;;21.20;45.70;;;;;;5096874;28;20019;-42
2022/04/14 00:13:56;;;;;;;;;;;21.20;45.70;;;;;;5096926;28;20424;-42
2022/04/14 00:16:23;;;;;;;;;;;21.20;45.70;;;;;;5082540;28;19925;-42
2022/04/14 00:18:51;;;;;;;;;;;21.20;45.80;;;;;;5059148;28;19924;-42
2022/04/14 00:21:18;;;;;;;;;;;21.20;45.80;;;;;;5076727;28;19924;-41
2022/04/14 00:23:44;;;;;;;;;;;21.20;45.80;;;;;;5060883;28;19928;-43
2022/04/14 00:26:11;;;;;;;;;;;21.20;45.80;;;;;;5097014;28;19947;-42
2022/04/14 00:28:38;;;;;;;;;;;21.20;45.70;;;;;;5079022;28;20405;-42
2022/04/14 00:31:05;;;;;;;;;;;21.20;45.80;;;;;;5095200;28;19970;-42
2022/04/14 00:33:33;;;;;;;;;;;21.20;45.70;;;;;;5096802;28;19924;-42
2022/04/14 00:36:00;;;;;;;;;;;21.20;45.80;;;;;;5096510;28;20011;-42
2022/04/14 00:38:27;;;;;;;;;;;21.20;45.80;;;;;;5097283;28;19928;-42
2022/04/14 00:40:55;;;;;;;;;;;21.20;45.80;;;;;;5095807;28;19924;-42
2022/04/14 00:43:29;;;;;;;;;;;21.20;45.80;;;;;;5096347;28;20015;-43
2022/04/14 00:45:57;;;;;;;;;;;21.20;45.80;;;;;;5088856;28;19986;-42
2022/04/14 00:48:24;;;;;;;;;;;21.20;45.80;;;;;;5076339;28;19978;-42
2022/04/14 00:50:51;;;;;;;;;;;21.20;45.80;;;;;;5075863;28;19931;-42
2022/04/14 00:53:20;;;;;;;;;;;21.20;45.80;;;;;;5075884;28;19930;-42
2022/04/14 00:55:47;;;;;;;;;;;21.20;45.80;;;;;;5092545;28;19924;-44
2022/04/14 00:58:14;;;;;;;;;;;21.20;45.80;;;;;;5096067;28;19924;-44
2022/04/14 01:00:41;;;;;;;;;;;21.20;45.80;;;;;;5095436;28;19924;-44
2022/04/14 01:03:09;;;;;;;;;;;21.20;45.80;;;;;;5096217;28;19924;-42
2022/04/14 01:05:37;;;;;;;;;;;21.20;45.80;;;;;;5095983;28;19924;-42
2022/04/14 01:08:05;;;;;;;;;;;21.20;45.80;;;;;;5096235;28;19924;-43
2022/04/14 01:10:33;;;;;;;;;;;21.20;45.90;;;;;;5094892;28;20428;-42
2022/04/14 01:13:00;;;;;;;;;;;21.20;45.90;;;;;;5096053;28;19932;-42
2022/04/14 01:15:28;;;;;;;;;;;21.20;45.90;;;;;;5094301;28;19932;-42
2022/04/14 01:17:55;;;;;;;;;;;21.20;45.90;;;;;;5096024;28;19927;-43
2022/04/14 01:20:22;;;;;;;;;;;21.20;45.90;;;;;;5094571;28;19964;-42
2022/04/14 01:22:54;;;;;;;;;;;21.20;45.90;;;;;;5095450;28;19928;-42
2022/04/14 01:25:21;;;;;;;;;;;21.20;45.90;;;;;;5094628;28;19924;-42
2022/04/14 01:27:50;;;;;;;;;;;21.20;45.90;;;;;;5095815;28;19924;-42
2022/04/14 01:30:17;;;;;;;;;;;21.10;45.80;;;;;;5095772;28;19924;-42
2022/04/14 01:32:44;;;;;;;;;;;21.10;45.80;;;;;;5094582;28;19925;-43
2022/04/14 01:35:11;;;;;;;;;;;21.10;45.80;;;;;;5095384;28;20359;-42
2022/04/14 01:37:37;;;;;;;;;;;21.20;45.90;;;;;;5095626;28;19954;-42
2022/04/14 01:40:05;;;;;;;;;;;21.10;45.80;;;;;;5094324;28;19931;-43
2022/04/14 01:42:32;;;;;;;;;;;21.10;45.90;;;;;;5095234;28;19924;-42
2022/04/14 01:45:05;;;;;;;;;;;21.10;45.90;;;;;;5095533;28;19989;-43
2022/04/14 01:47:32;;;;;;;;;;;21.10;45.90;;;;;;5094297;28;19928;-42
2022/04/14 01:49:59;;;;;;;;;;;21.10;45.90;;;;;;5095406;28;20338;-42
2022/04/14 01:52:26;;;;;;;;;;;21.10;45.90;;;;;;5094890;28;20403;-42
2022/04/14 01:54:53;;;;;;;;;;;21.10;45.90;;;;;;5094331;28;19924;-42
2022/04/14 01:57:20;;;;;;;;;;;21.10;45.90;;;;;;5094945;28;19981;-44
2022/04/14 01:59:47;;;;;;;;;;;21.10;45.90;;;;;;5094887;28;19974;-45
2022/04/14 02:02:13;;;;;;;;;;;21.10;45.90;;;;;;5094437;28;19928;-42
2022/04/14 02:04:42;;;;;;;;;;;21.10;45.90;;;;;;5094738;28;19978;-43
2022/04/14 02:07:09;;;;;;;;;;;21.10;45.90;;;;;;5094744;28;19982;-42
2022/04/14 02:09:37;;;;;;;;;;;21.10;45.90;;;;;;5094167;28;19973;-43
2022/04/14 02:12:04;;;;;;;;;;;21.10;45.90;;;;;;5074311;28;19925;-42
2022/04/14 02:14:31;;;;;;;;;;;21.10;45.90;;;;;;5074364;28;19925;-43
2022/04/14 02:16:58;;;;;;;;;;;21.10;45.90;;;;;;5081267;28;19924;-46
2022/04/14 02:19:25;;;;;;;;;;;21.10;45.90;;;;;;5094878;28;19928;-42
2022/04/14 02:21:52;;;;;;;;;;;21.10;46.00;;;;;;5094686;28;19977;-42
2022/04/14 02:24:19;;;;;;;;;;;21.10;46.00;;;;;;5076511;28;19985;-43
2022/04/14 02:26:46;;;;;;;;;;;21.10;45.90;;;;;;5093760;28;19924;-42
2022/04/14 02:29:13;;;;;;;;;;;21.10;45.90;;;;;;5076738;28;20007;-43
2022/04/14 02:31:40;;;;;;;;;;;21.10;46.00;;;;;;5090054;28;19982;-42
2022/04/14 02:34:07;;;;;;;;;;;21.10;45.90;;;;;;5074237;28;19948;-42
2022/04/14 02:36:33;;;;;;;;;;;21.10;46.00;;;;;;5073996;28;19925;-42
2022/04/14 02:39:01;;;;;;;;;;;21.10;45.90;;;;;;5074247;28;19924;-42
2022/04/14 02:41:27;;;;;;;;;;;21.10;45.90;;;;;;5086699;28;19928;-45
2022/04/14 02:43:54;;;;;;;;;;;21.10;46.00;;;;;;5076264;28;20383;-43
2022/04/14 02:46:21;;;;;;;;;;;21.10;46.00;;;;;;5093494;28;19927;-44
2022/04/14 02:48:48;;;;;;;;;;;21.00;45.90;;;;;;5074064;28;20011;-45
2022/04/14 02:51:15;;;;;;;;;;;21.10;46.00;;;;;;5073737;28;19924;-43
2022/04/14 02:53:42;;;;;;;;;;;21.10;46.10;;;;;;5074044;28;19924;-42
2022/04/14 02:56:10;;;;;;;;;;;21.10;46.10;;;;;;5082880;28;20340;-44
2022/04/14 02:58:39;;;;;;;;;;;21.10;46.10;;;;;;5093969;28;19924;-42
2022/04/14 03:01:06;;;;;;;;;;;21.00;46.00;;;;;;5094243;28;20292;-43
2022/04/14 03:03:33;;;;;;;;;;;21.00;46.00;;;;;;5058735;28;20011;-49
2022/04/14 03:06:00;;;;;;;;;;;21.00;46.00;;;;;;5073647;28;20388;-43
2022/04/14 03:08:27;;;;;;;;;;;21.10;46.00;;;;;;5073656;28;19924;-44
2022/04/14 03:10:55;;;;;;;;;;;21.00;46.00;;;;;;5079337;28;19936;-46
2022/04/14 03:13:22;;;;;;;;;;;21.00;46.00;;;;;;5093734;28;19981;-47
2022/04/14 03:15:50;;;;;;;;;;;21.00;46.00;;;;;;5093765;28;19931;-42
2022/04/14 03:18:18;;;;;;;;;;;21.00;46.00;;;;;;5092596;28;19924;-45
2022/04/14 03:20:45;;;;;;;;;;;21.00;46.00;;;;;;5093600;28;20010;-42
2022/04/14 03:23:11;;;;;;;;;;;21.00;46.00;;;;;;5093506;28;19924;-43
2022/04/14 03:25:39;;;;;;;;;;;21.00;46.00;;;;;;5092802;28;19936;-42
2022/04/14 03:28:06;;;;;;;;;;;21.00;46.00;;;;;;5093664;28;19924;-43
2022/04/14 03:30:32;;;;;;;;;;;21.00;46.00;;;;;;5075676;28;20391;-45
2022/04/14 03:32:59;;;;;;;;;;;21.00;46.00;;;;;;5092510;28;19977;-43
2022/04/14 03:35:27;;;;;;;;;;;21.00;46.10;;;;;;5093898;28;19969;-44
2022/04/14 03:37:54;;;;;;;;;;;21.00;46.10;;;;;;5093560;28;19931;-44
2022/04/14 03:40:21;;;;;;;;;;;21.00;46.10;;;;;;5093526;28;19928;-43
2022/04/14 03:42:48;;;;;;;;;;;21.00;46.10;;;;;;5092644;28;19974;-46
2022/04/14 03:45:15;;;;;;;;;;;21.00;46.10;;;;;;5097837;28;19967;-44
2022/04/14 03:47:42;;;;;;;;;;;21.00;46.10;;;;;;5096515;28;20339;-48
2022/04/14 03:50:09;;;;;;;;;;;21.00;46.10;;;;;;5097722;28;19928;-44
2022/04/14 03:52:36;;;;;;;;;;;21.00;46.10;;;;;;5097526;28;19924;-44
2022/04/14 03:55:03;;;;;;;;;;;21.00;46.10;;;;;;5097643;28;20011;-46
2022/04/14 03:57:30;;;;;;;;;;;21.00;46.10;;;;;;5096311;28;19928;-45
2022/04/14 03:59:56;;;;;;;;;;;21.00;46.10;;;;;;5063066;28;19969;-44
2022/04/14 04:02:23;;;;;;;;;;;21.00;46.10;;;;;;5095708;28;19974;-44
2022/04/14 04:04:53;;;;;;;;;;;21.00;46.10;;;;;;5097403;28;20299;-46
2022/04/14 04:07:20;;;;;;;;;;;21.00;46.10;;;;;;5079152;28;20014;-46
2022/04/14 04:09:46;;;;;;;;;;;21.00;46.10;;;;;;5097061;28;20336;-44
2022/04/14 04:12:13;;;;;;;;;;;21.00;46.10;;;;;;5096259;28;20347;-44
2022/04/14 04:14:41;;;;;;;;;;;21.00;46.10;;;;;;5096915;28;19928;-43
2022/04/14 04:17:08;;;;;;;;;;;20.90;46.10;;;;;;5096931;28;19971;-44
2022/04/14 04:19:38;;;;;;;;;;;21.00;46.10;;;;;;5079330;28;19928;-44
2022/04/14 04:22:06;;;;;;;;;;;20.90;46.10;;;;;;5077045;28;20292;-43
2022/04/14 04:24:33;;;;;;;;;;;21.00;46.10;;;;;;5076484;28;19924;-43
2022/04/14 04:27:00;;;;;;;;;;;20.90;46.10;;;;;;5084576;28;20033;-43
2022/04/14 04:29:27;;;;;;;;;;;20.90;46.10;;;;;;5096966;28;19925;-44
2022/04/14 04:31:54;;;;;;;;;;;20.90;46.10;;;;;;5096953;28;19924;-44
2022/04/14 04:34:21;;;;;;;;;;;20.90;46.10;;;;;;5095319;28;19978;-44
2022/04/14 04:36:48;;;;;;;;;;;20.90;46.10;;;;;;5078604;28;19971;-44
2022/04/14 04:39:15;;;;;;;;;;;20.90;46.10;;;;;;5096783;28;19974;-43
2022/04/14 04:41:42;;;;;;;;;;;21.00;46.10;;;;;;5095496;28;19924;-43
2022/04/14 04:44:09;;;;;;;;;;;20.90;46.10;;;;;;5096381;28;19973;-43
2022/04/14 04:46:36;;;;;;;;;;;21.00;46.10;;;;;;5096325;28;19924;-44
2022/04/14 04:49:03;;;;;;;;;;;21.00;46.10;;;;;;5085545;28;19924;-44
2022/04/14 04:51:30;;;;;;;;;;;21.00;46.10;;;;;;5076231;28;19951;-43
2022/04/14 04:53:57;;;;;;;;;;;21.00;46.10;;;;;;5075791;28;19924;-46
2022/04/14 04:56:25;;;;;;;;;;;21.00;46.10;;;;;;5076061;28;19978;-43
2022/04/14 04:58:52;;;;;;;;;;;21.00;46.10;;;;;;5096114;28;19998;-44
2022/04/14 05:01:19;;;;;;;;;;;21.00;46.10;;;;;;5096398;28;19924;-43
2022/04/14 05:03:46;;;;;;;;;;;21.00;46.10;;;;;;5095656;28;20322;-48
2022/04/14 05:06:13;;;;;;;;;;;21.00;46.10;;;;;;5096267;28;19973;-44
2022/04/14 05:08:40;;;;;;;;;;;21.00;46.00;;;;;;5095931;28;19974;-44
2022/04/14 05:11:07;;;;;;;;;;;21.00;46.10;;;;;;5078290;28;19924;-43
2022/04/14 05:13:34;;;;;;;;;;;21.00;46.10;;;;;;5095102;28;19924;-43
2022/04/14 05:16:02;;;;;;;;;;;21.00;46.10;;;;;;5096067;28;19931;-48
2022/04/14 05:18:29;;;;;;;;;;;21.00;46.10;;;;;;5094198;28;19935;-46
2022/04/14 05:20:56;;;;;;;;;;;21.00;46.70;;;;;;5077686;28;19924;-43
2022/04/14 05:23:23;;;;;;;;;;;21.00;46.00;;;;;;5095401;28;19932;-47
2022/04/14 05:25:50;;;;;;;;;;;21.00;46.00;;;;;;5095842;28;19952;-45
2022/04/14 05:28:17;;;;;;;;;;;21.00;46.00;;;;;;5094969;28;20325;-43
2022/04/14 05:30:44;;;;;;;;;;;21.00;46.00;;;;;;5077910;28;19971;-43
2022/04/14 05:33:12;;;;;;;;;;;21.00;46.00;;;;;;5095621;28;20326;-43
2022/04/14 05:35:39;;;;;;;;;;;21.00;46.00;;;;;;5076149;28;19924;-43
2022/04/14 05:38:06;;;;;;;;;;;21.00;45.90;;;;;;5075378;28;19930;-43
2022/04/14 05:40:35;;;;;;;;;;;21.00;46.00;;;;;;5075379;28;19924;-44
2022/04/14 05:43:02;;;;;;;;;;;21.10;46.00;;;;;;5084961;28;19970;-44
2022/04/14 05:45:31;;;;;;;;;;;21.10;46.00;;;;;;5060926;28;19930;-43
2022/04/14 05:47:57;;;;;;;;;;;21.10;46.00;;;;;;5095979;28;19966;-48
2022/04/14 05:50:24;;;;;;;;;;;21.10;45.90;;;;;;5094130;28;19924;-43
2022/04/14 05:52:51;;;;;;;;;;;21.10;45.90;;;;;;5094974;28;19928;-44
2022/04/14 05:55:18;;;;;;;;;;;21.10;45.90;;;;;;5095007;28;20429;-48
2022/04/14 05:57:46;;;;;;;;;;;21.10;46.00;;;;;;5094284;28;20264;-46
2022/04/14 06:00:13;;;;;;;;;;;21.10;46.00;;;;;;5094891;28;20086;-44
2022/04/14 06:02:40;;;;;;;;;;;21.10;46.00;;;;;;5094799;28;20015;-50
2022/04/14 06:05:08;;;;;;;;;;;21.10;45.90;;;;;;5081639;28;19968;-51
2022/04/14 06:07:35;;;;;;;;;;;21.10;45.90;;;;;;5074045;28;19924;-49
2022/04/14 06:10:02;;;;;;;;;;;21.10;45.90;;;;;;5074420;28;20379;-46
2022/04/14 06:12:29;;;;;;;;;;;21.10;45.90;;;;;;5076704;28;19973;-43
2022/04/14 06:14:56;;;;;;;;;;;21.10;45.90;;;;;;5094890;28;19928;-44
2022/04/14 06:17:23;;;;;;;;;;;21.10;45.90;;;;;;5094576;28;19946;-44
2022/04/14 06:19:50;;;;;;;;;;;21.10;45.90;;;;;;5067929;28;19924;-43
2022/04/14 06:22:17;;;;;;;;;;;21.10;45.90;;;;;;5073909;28;19925;-49
2022/04/14 06:24:44;;;;;;;;;;;21.10;45.90;;;;;;5074556;28;19956;-43
2022/04/14 06:27:11;;;;;;;;;;;21.10;45.90;;;;;;5074931;28;19982;-46
2022/04/14 06:29:38;;;;;;;;;;;21.10;45.90;;;;;;5093005;28;19969;-43
2022/04/14 06:32:05;;;;;;;;;;;21.10;45.90;;;;;;5094300;28;19925;-48
2022/04/14 06:34:32;;;;;;;;;;;21.10;45.90;;;;;;5093731;28;19924;-51
2022/04/14 06:36:59;;;;;;;;;;;21.10;45.90;;;;;;5095120;28;19939;-44
2022/04/14 06:39:26;;;;;;;;;;;21.10;45.90;;;;;;5094181;28;20002;-43
2022/04/14 06:41:53;;;;;;;;;;;21.10;45.90;;;;;;5094128;28;19974;-43
2022/04/14 06:44:20;;;;;;;;;;;21.10;45.90;;;;;;5093412;28;19931;-45
2022/04/14 06:46:47;;;;;;;;;;;21.10;46.00;;;;;;5093993;28;19967;-43
2022/04/14 06:49:14;;;;;;;;;;;21.10;46.00;;;;;;5092874;28;19970;-45
2022/04/14 06:51:41;;;;;;;;;;;21.10;46.00;;;;;;5093974;28;19993;-44
2022/04/14 06:54:08;;;;;;;;;;;21.10;46.00;;;;;;5094170;28;19928;-48
2022/04/14 06:56:35;;;;;;;;;;;21.10;46.00;;;;;;5093967;28;20273;-45
2022/04/14 06:59:02;;;;;;;;;;;21.10;46.00;;;;;;5093227;28;19954;-49
2022/04/14 07:01:28;;;;;;;;;;;21.10;46.10;;;;;;5094231;28;19956;-43
2022/04/14 07:03:55;;;;;;;;;;;21.10;46.10;;;;;;5093796;28;19931;-42
2022/04/14 07:06:22;;;;;;;;;;;21.10;46.00;;;;;;5093033;28;20387;-42
2022/04/14 07:08:50;;;;;;;;;;;21.10;46.00;;;;;;5093701;28;20444;-44
2022/04/14 07:11:17;;;;;;;;;;;21.10;46.00;;;;;;5075815;28;19928;-46
2022/04/14 07:13:44;;;;;;;;;;;21.10;46.00;;;;;;5092971;28;20017;-43
2022/04/14 07:16:12;;;;;;;;;;;21.10;45.90;;;;;;5093572;28;19928;-43
2022/04/14 07:18:40;;;;;;;;;;;21.10;45.90;;;;;;5095209;28;20358;-43
2022/04/14 07:21:07;;;;;;;;;;;21.10;45.90;;;;;;5096906;28;19924;-43
2022/04/14 07:23:34;;;;;;;;;;;21.10;45.90;;;;;;5097867;28;19973;-44
2022/04/14 07:26:01;;;;;;;;;;;21.10;45.90;;;;;;5097838;28;19928;-43
2022/04/14 07:28:28;;;;;;;;;;;21.10;45.90;;;;;;5096940;28;19969;-43
2022/04/14 07:30:55;;;;;;;;;;;21.10;45.90;;;;;;5097797;28;19924;-43
2022/04/14 07:33:22;;;;;;;;;;;21.10;45.90;;;;;;5097579;28;19970;-43
2022/04/14 07:35:50;;;;;;;;;;;21.10;45.80;;;;;;5087555;28;19947;-43
2022/04/14 07:38:17;;;;;;;;;;;21.10;45.80;;;;;;5077399;28;19924;-43
2022/04/14 07:40:45;;;;;;;;;;;21.10;45.80;;;;;;5077661;28;20334;-44
2022/04/14 07:43:12;;;;;;;;;;;21.20;45.80;;;;;;5077109;28;19924;-43
2022/04/14 07:45:42;;;;;;;;;;;21.20;45.80;;;;;;5097662;28;19924;-49
2022/04/14 07:48:09;;;;;;;;;;;21.20;45.80;;;;;;5097823;28;20332;-46
2022/04/14 07:50:36;;;;;;;;;;;21.20;45.70;;;;;;5090293;28;20334;-48
2022/04/14 07:53:03;;;;;;;;;;;21.20;45.60;;;;;;5077401;28;19974;-46
2022/04/14 07:55:32;;;;;;;;;;;21.20;45.60;;;;;;5077820;28;19928;-44
2022/04/14 07:58:06;;;;;;;;;;;21.20;45.60;;;;;;5077101;28;19924;-46
2022/04/14 08:00:34;;;;;;;;;;;21.20;45.50;;;;;;5095094;28;19930;-45
2022/04/14 08:03:02;;;;;;;;;;;21.20;45.50;;;;;;5097014;28;19981;-44
2022/04/14 08:05:34;;;;;;;;;;;21.30;45.50;;;;;;5096572;28;20011;-43
2022/04/14 08:08:02;;;;;;;;;;;21.30;45.50;;;;;;5098143;28;20077;-44
2022/04/14 08:10:29;;;;;;;;;;;21.30;45.40;;;;;;5097122;28;19924;-43
2022/04/14 08:12:56;;;;;;;;;;;21.30;45.40;;;;;;5096905;28;19967;-48
2022/04/14 08:15:23;;;;;;;;;;;21.30;45.30;;;;;;5095893;28;20375;-45
2022/04/14 08:17:50;;;;;;;;;;;21.30;45.30;;;;;;5078970;28;19931;-46
2022/04/14 08:20:18;;;;;;;;;;;21.40;45.40;;;;;;5096033;28;19924;-46
2022/04/14 08:22:45;;;;;;;;;;;21.40;45.30;;;;;;5096823;28;19983;-45
2022/04/14 08:25:13;;;;;;;;;;;21.40;45.30;;;;;;5096709;28;19924;-45
2022/04/14 08:27:40;;;;;;;;;;;21.40;45.20;;;;;;5096957;28;20338;-50
2022/04/14 08:30:07;;;;;;;;;;;21.40;45.20;;;;;;5095530;28;20370;-46
2022/04/14 08:32:35;;;;;;;;;;;21.40;45.20;;;;;;5096402;28;20371;-49
2022/04/14 08:35:03;;;;;;;;;;;21.50;45.20;;;;;;5096395;28;19932;-46
2022/04/14 08:37:30;;;;;;;;;;;21.50;45.20;;;;;;5078532;28;19925;-44
2022/04/14 08:39:58;;;;;;;;;;;21.50;45.20;;;;;;5076432;28;19971;-48
2022/04/14 08:42:26;;;;;;;;;;;21.50;45.20;;;;;;5076292;28;20354;-48
2022/04/14 08:45:01;;;;;;;;;;;21.50;45.10;;;;;;5084326;28;19930;-49
2022/04/14 08:47:29;;;;;;;;;;;21.50;45.10;;;;;;5096712;28;19970;-48
2022/04/14 08:49:57;;;;;;;;;;;21.50;45.00;;;;;;5096595;28;19924;-50
2022/04/14 08:52:27;;;;;;;;;;;21.60;45.10;;;;;;5095132;28;19977;-50
2022/04/14 08:54:55;;;;;;;;;;;21.60;45.00;;;;;;5096125;28;19969;-51
2022/04/14 08:57:22;;;;;;;;;;;21.60;45.00;;;;;;5096462;28;19928;-48
2022/04/14 08:59:50;;;;;;;;;;;21.60;45.00;;;;;;5095122;28;19960;-49
2022/04/14 09:02:19;;;;;;;;;;;21.60;45.00;;;;;;5096300;28;19924;-48
2022/04/14 09:04:46;;;;;;;;;;;21.70;45.00;;;;;;5096342;28;19924;-51
2022/04/14 09:07:13;;;;;;;;;;;21.60;45.00;;;;;;5094995;28;19925;-51
2022/04/14 09:09:41;;;;;;;;;;;21.70;45.00;;;;;;5078282;28;19924;-49
2022/04/14 09:12:09;;;;;;;;;;;21.70;45.00;;;;;;5096032;28;19947;-46
2022/04/14 09:14:37;;;;;;;;;;;21.70;45.00;;;;;;5095169;28;19928;-46
2022/04/14 09:17:05;;;;;;;;;;;21.70;45.00;;;;;;5095773;28;19924;-47
2022/04/14 09:19:32;;;;;;;;;;;21.70;45.00;;;;;;5095655;28;19928;-46
2022/04/14 09:22:20;;;;;;;;;;;21.70;45.00;;;;;;5085899;28;19928;-48
2022/04/14 09:24:48;;;;;;;;;;;21.70;44.90;;;;;;5075360;28;19925;-46
2022/04/14 09:27:23;;;;;;;;;;;21.80;45.00;;;;;;5075210;28;19925;-49
2022/04/14 09:29:51;;;;;;;;;;;21.80;45.00;;;;;;5079459;28;20284;-51
2022/04/14 09:32:30;;;;;;;;;;;21.80;44.90;;;;;;5095349;28;20433;-50
2022/04/14 09:34:58;;;;;;;;;;;21.80;44.90;;;;;;5095654;28;19981;-43
2022/04/14 09:37:26;;;;;;;;;;;21.80;44.90;;;;;;5083881;28;19931;-43
2022/04/14 09:40:11;;;;;;;;;;;21.90;44.90;;;;;;5075336;28;19925;-43
2022/04/14 09:42:39;;;;;;;;;;;21.90;44.80;;;;;;5074601;28;19925;-46
2022/04/14 09:45:20;;;;;;;;;;;21.90;44.80;;;;;;5080346;28;19928;-46
2022/04/14 09:48:09;;;;;;;;;;;21.90;44.80;;;;;;5095154;28;19930;-52
2022/04/14 09:50:40;;;;;;;;;;;22.00;44.90;;;;;;5077025;28;19924;-45
2022/04/14 09:53:08;;;;;;;;;;;22.00;44.90;;;;;;5094014;28;19927;-46
2022/04/14 09:55:35;;;;;;;;;;;22.00;44.90;;;;;;5094890;28;19924;-49
2022/04/14 09:58:07;;;;;;;;;;;22.00;44.90;;;;;;5077035;28;19931;-47
2022/04/14 10:00:47;;;;;;;;;;;22.00;44.90;;;;;;5094260;28;20326;-51
2022/04/14 10:03:16;;;;;;;;;;;22.00;44.90;;;;;;5094993;28;19924;-43
2022/04/14 10:05:44;;;;;;;;;;;22.10;44.90;;;;;;5094765;28;19963;-50
2022/04/14 10:08:13;;;;;;;;;;;22.10;44.70;;;;;;5079495;28;19924;-44
2022/04/14 10:10:41;;;;;;;;;;;22.10;44.70;;;;;;5074430;28;19975;-45
2022/04/14 10:13:09;;;;;;;;;;;22.10;44.70;;;;;;5074737;28;19960;-43
2022/04/14 10:15:37;;;;;;;;;;;22.10;44.70;;;;;;5081022;28;20009;-49
2022/04/14 10:18:09;;;;;;;;;;;22.10;44.70;;;;;;5094630;28;19925;-50
2022/04/14 10:20:37;;;;;;;;;;;22.10;44.60;;;;;;5094522;28;19985;-46
2022/04/14 10:23:05;;;;;;;;;;;22.20;44.80;;;;;;5080555;28;20015;-46
2022/04/14 10:25:33;;;;;;;;;;;22.10;44.70;;;;;;5074366;28;20301;-45
2022/04/14 10:28:03;;;;;;;;;;;22.20;44.80;;;;;;5073679;28;20205;-44
2022/04/14 10:30:30;;;;;;;;;;;22.10;44.70;;;;;;5078252;28;19924;-44
2022/04/14 10:32:57;;;;;;;;;;;22.10;44.80;;;;;;5094393;28;19970;-45
2022/04/14 10:35:26;;;;;;;;;;;22.20;45.50;;;;;;5094151;28;20024;-44
2022/04/14 10:38:19;;;;;;;;;;;22.10;44.80;;;;;;5084332;28;19924;-44
2022/04/14 10:41:13;;;;;;;;;;;22.20;44.90;;;;;;5071409;28;19931;-45
2022/04/14 10:43:46;;;;;;;;;;;22.20;44.80;;;;;;5067375;28;19947;-46
2022/04/14 10:46:17;;;;;;;;;;;22.20;44.90;;;;;;5083009;28;19993;-43
2022/04/14 10:48:45;;;;;;;;;;;22.20;45.50;;;;;;5094292;28;19974;-46
2022/04/14 10:51:24;;;;;;;;;;;22.20;44.90;;;;;;5093829;28;19950;-49
2022/04/14 10:53:52;;;;;;;;;;;22.20;44.90;;;;;;5092936;28;19928;-46
2022/04/14 10:56:34;;;;;;;;;;;22.20;44.90;;;;;;5093837;28;19967;-46
2022/04/14 10:59:02;;;;;;;;;;;22.20;45.00;;;;;;5095032;28;19947;-45
2022/04/14 11:04:25;;;;;;;;;;;22.20;45.00;;;;;;5093823;28;19928;-44
2022/04/14 11:06:54;;;;;;;;;;;22.20;45.00;;;;;;5093848;28;19928;-49
2022/04/14 11:09:42;;;;;;;;;;;22.20;45.00;;;;;;5074683;28;20265;-45
2022/04/14 11:12:13;;;;;;;;;;;22.20;45.10;;;;;;5073651;28;19924;-46
2022/04/14 11:14:50;;;;;;;;;;;22.20;45.00;;;;;;5073500;28;19924;-46
2022/04/14 11:17:38;;;;;;;;;;;22.20;44.90;;;;;;5088884;28;20322;-45
2022/04/14 11:20:15;;;;;;;;;;;22.30;45.00;;;;;;5094023;28;19947;-49
2022/04/14 11:23:00;;;;;;;;;;;22.30;45.00;;;;;;5089558;28;20380;-48
2022/04/14 11:25:43;;;;;;;;;;;22.30;44.90;;;;;;5073837;28;19931;-48
2022/04/14 11:28:30;;;;;;;;;;;22.30;44.90;;;;;;5073545;28;20019;-45
2022/04/14 11:30:59;;;;;;;;;;;22.30;44.90;;;;;;5075834;28;19974;-45
2022/04/14 11:33:32;;;;;;;;;;;22.30;44.90;;;;;;5093553;28;20448;-44
2022/04/14 11:36:11;;;;;;;;;;;22.30;44.90;;;;;;5093842;28;19924;-44
2022/04/14 11:38:53;;;;;;;;;;;22.30;44.90;;;;;;5093172;28;20348;-44
2022/04/14 11:41:39;;;;;;;;;;;22.30;44.90;;;;;;5093808;28;19924;-44
2022/04/14 11:44:11;;;;;;;;;;;22.30;45.00;;;;;;5093539;28;19924;-44
2022/04/14 11:46:39;;;;;;;;;;;22.30;45.00;;;;;;5092652;28;19924;-52
2022/04/14 11:49:09;;;;;;;;;;;22.20;45.00;;;;;;5089651;28;20393;-44
2022/04/14 11:51:48;;;;;;;;;;;22.20;45.00;;;;;;5093011;28;19924;-44
2022/04/14 11:54:22;;;;;;;;;;;22.30;45.10;;;;;;5079146;28;19925;-46
2022/04/14 11:57:09;;;;;;;;;;;22.30;45.10;;;;;;5073093;28;19925;-45
2022/04/14 11:59:44;;;;;;;;;;;22.30;45.10;;;;;;5073105;28;20022;-44
2022/04/14 12:02:11;;;;;;;;;;;22.20;45.00;;;;;;5083122;28;19982;-46
2022/04/14 12:04:46;;;;;;;;;;;22.20;45.10;;;;;;5076789;28;19931;-44
2022/04/14 12:07:13;;;;;;;;;;;22.20;45.10;;;;;;5097124;28;19935;-46
2022/04/14 12:09:40;;;;;;;;;;;22.20;45.10;;;;;;5095474;28;19924;-48
2022/04/14 12:12:29;;;;;;;;;;;22.20;45.10;;;;;;5097357;28;19981;-46
2022/04/14 12:14:57;;;;;;;;;;;22.30;45.20;;;;;;5096912;28;19978;-49
2022/04/14 12:17:25;;;;;;;;;;;22.20;45.10;;;;;;5096075;28;19977;-45
2022/04/14 12:19:53;;;;;;;;;;;22.20;45.10;;;;;;5097213;28;19927;-44
2022/04/14 12:22:21;;;;;;;;;;;22.20;45.20;;;;;;5096556;28;19973;-45
2022/04/14 12:24:47;;;;;;;;;;;22.20;45.20;;;;;;5081905;28;19924;-44
2022/04/14 12:27:26;;;;;;;;;;;22.20;45.20;;;;;;5076812;28;19929;-44
2022/04/14 12:30:02;;;;;;;;;;;22.20;45.20;;;;;;5076479;28;19932;-44
2022/04/14 12:32:29;;;;;;;;;;;22.30;45.30;;;;;;5085905;28;19928;-45
2022/04/14 12:34:56;;;;;;;;;;;22.30;45.30;;;;;;5096249;28;19924;-44
2022/04/14 12:37:36;;;;;;;;;;;22.30;45.30;;;;;;5096884;28;19989;-45
2022/04/14 12:40:06;;;;;;;;;;;22.30;45.30;;;;;;5096174;28;20300;-45
2022/04/14 12:42:33;;;;;;;;;;;22.30;45.30;;;;;;5078894;28;19928;-44
2022/04/14 12:45:04;;;;;;;;;;;22.30;45.30;;;;;;5096376;28;19924;-44
2022/04/14 12:47:31;;;;;;;;;;;22.30;45.30;;;;;;5095775;28;19978;-44
2022/04/14 12:49:58;;;;;;;;;;;22.30;45.30;;;;;;5097446;28;19924;-44
2022/04/14 12:52:28;;;;;;;;;;;22.30;45.30;;;;;;5096461;28;19924;-44
2022/04/14 12:54:56;;;;;;;;;;;22.30;45.30;;;;;;5095412;28;19924;-46
2022/04/14 12:57:23;;;;;;;;;;;22.30;45.30;;;;;;5096422;28;19928;-46
2022/04/14 13:00:10;;;;;;;;;;;22.30;45.30;;;;;;5096406;28;19931;-44
2022/04/14 13:02:38;;;;;;;;;;;22.30;45.30;;;;;;5095410;28;20261;-47
2022/04/14 13:05:11;;;;;;;;;;;22.30;45.30;;;;;;5096303;28;19924;-45
2022/04/14 13:07:50;;;;;;;;;;;22.30;45.30;;;;;;5095968;28;19960;-44
2022/04/14 13:10:29;;;;;;;;;;;22.30;45.20;;;;;;5080403;28;19925;-47
2022/04/14 13:12:57;;;;;;;;;;;22.30;45.30;;;;;;5075906;28;20338;-44
2022/04/14 13:15:25;;;;;;;;;;;22.30;45.20;;;;;;5074722;28;19971;-49
2022/04/14 13:17:53;;;;;;;;;;;22.40;45.30;;;;;;5083738;28;19924;-47
2022/04/14 13:20:21;;;;;;;;;;;22.40;45.20;;;;;;5095622;28;20392;-48
2022/04/14 13:22:51;;;;;;;;;;;22.40;45.20;;;;;;5095676;28;19969;-46
2022/04/14 13:25:19;;;;;;;;;;;22.40;45.20;;;;;;5081848;28;19924;-49
2022/04/14 13:27:46;;;;;;;;;;;22.40;45.20;;;;;;5075294;28;19946;-48
2022/04/14 13:30:13;;;;;;;;;;;22.40;45.10;;;;;;5075523;28;20277;-47
2022/04/14 13:32:40;;;;;;;;;;;22.40;45.10;;;;;;5080748;28;20299;-46
2022/04/14 13:35:07;;;;;;;;;;;22.40;45.10;;;;;;5095364;28;20023;-44
2022/04/14 13:37:35;;;;;;;;;;;22.40;45.10;;;;;;5095404;28;19978;-47
2022/04/14 13:40:04;;;;;;;;;;;22.40;45.10;;;;;;5084605;28;19957;-46
2022/04/14 13:42:32;;;;;;;;;;;22.40;45.10;;;;;;5075079;28;19924;-45
2022/04/14 13:44:59;;;;;;;;;;;22.40;45.10;;;;;;5075323;28;19986;-44
2022/04/14 13:47:26;;;;;;;;;;;22.40;45.10;;;;;;5076914;28;19928;-45
2022/04/14 13:49:53;;;;;;;;;;;22.40;45.10;;;;;;5095173;28;19928;-44
2022/04/14 13:52:20;;;;;;;;;;;22.40;45.10;;;;;;5094994;28;19924;-44
2022/04/14 13:54:47;;;;;;;;;;;22.40;45.10;;;;;;5094604;28;19924;-49
2022/04/14 13:57:14;;;;;;;;;;;22.40;45.10;;;;;;5095177;28;19967;-44
2022/04/14 13:59:41;;;;;;;;;;;22.40;45.10;;;;;;5094698;28;20300;-44
2022/04/14 14:02:09;;;;;;;;;;;22.40;45.00;;;;;;5094966;28;19954;-46
2022/04/14 14:04:37;;;;;;;;;;;22.40;45.00;;;;;;5094113;28;19978;-46
2022/04/14 14:07:04;;;;;;;;;;;22.40;45.00;;;;;;5094931;28;20345;-46
2022/04/14 14:09:31;;;;;;;;;;;22.40;45.00;;;;;;5094294;28;19974;-44
2022/04/14 14:11:58;;;;;;;;;;;22.40;45.00;;;;;;5094905;28;19940;-44
2022/04/14 14:14:25;;;;;;;;;;;22.40;44.90;;;;;;5095001;28;19924;-49
2022/04/14 14:16:52;;;;;;;;;;;22.40;45.00;;;;;;5094535;28;19968;-44
2022/04/14 14:19:20;;;;;;;;;;;22.40;44.90;;;;;;5094004;28;20268;-46
2022/04/14 14:21:51;;;;;;;;;;;22.40;44.90;;;;;;5094253;28;19924;-46
2022/04/14 14:24:19;;;;;;;;;;;22.40;44.90;;;;;;5093679;28;19924;-44
2022/04/14 14:26:46;;;;;;;;;;;22.40;44.90;;;;;;5093534;28;20402;-44
2022/04/14 14:29:13;;;;;;;;;;;22.40;44.90;;;;;;5094242;28;19928;-44